createdAt,value
2023-04-02T00:01:49.800Z,100.00
2023-04-02T00:04:34.277Z,100.00
2023-04-02T00:07:30.489Z,100.00
2023-04-02T00:09:59.220Z,100.00
2023-04-02T00:12:29.164Z,100.00
2023-04-02T00:14:58.259Z,100.00
2023-04-02T00:17:27.017Z,100.00
2023-04-02T00:20:00.110Z,100.00
2023-04-02T00:22:31.771Z,100.00
2023-04-02T00:25:04.287Z,100.00
2023-04-02T00:27:34.180Z,100.00
2023-04-02T00:30:04.337Z,100.00
2023-04-02T00:32:34.505Z,100.00
2023-04-02T00:35:03.408Z,100.00
2023-04-02T00:37:39.212Z,100.00
2023-04-02T00:40:12.053Z,100.00
2023-04-02T00:42:42.843Z,100.00
2023-04-02T00:45:21.938Z,100.00
2023-04-02T00:47:50.360Z,100.00
2023-04-02T00:50:29.219Z,100.00
2023-04-02T00:52:59.323Z,100.00
2023-04-02T00:55:36.690Z,100.00
2023-04-02T00:58:14.559Z,100.00
2023-04-02T01:00:50.125Z,100.00
2023-04-02T01:03:37.127Z,100.00
2023-04-02T01:06:11.425Z,100.00
2023-04-02T01:08:55.508Z,100.00
2023-04-02T01:11:37.360Z,100.00
2023-04-02T01:14:16.489Z,100.00
2023-04-02T01:16:54.195Z,100.00
2023-04-02T01:20:01.066Z,100.00
2023-04-02T01:22:35.341Z,100.00
2023-04-02T01:25:04.727Z,100.00
2023-04-02T01:27:40.952Z,100.00
2023-04-02T01:30:14.676Z,100.00
2023-04-02T01:32:44.735Z,100.00
2023-04-02T01:35:13.477Z,100.00
2023-04-02T01:37:49.795Z,100.00
2023-04-02T01:40:32.998Z,100.00
2023-04-02T01:43:12.561Z,100.00
2023-04-02T01:45:42.245Z,100.00
2023-04-02T01:48:17.621Z,100.00
2023-04-02T01:50:48.498Z,100.00
2023-04-02T01:53:19.077Z,100.00
2023-04-02T01:55:49.930Z,100.00
2023-04-02T01:58:21.032Z,100.00
2023-04-02T02:00:54.800Z,100.00
2023-04-02T02:03:23.232Z,100.00
2023-04-02T02:05:52.175Z,100.00
2023-04-02T02:08:33.045Z,100.00
2023-04-02T02:11:01.304Z,100.00
2023-04-02T02:13:29.460Z,100.00
2023-04-02T02:16:01.086Z,100.00
2023-04-02T02:18:30.208Z,100.00
2023-04-02T02:21:00.278Z,100.00
2023-04-02T02:23:31.262Z,100.00
2023-04-02T02:26:00.175Z,100.00
2023-04-02T02:28:32.699Z,100.00
2023-04-02T02:31:05.147Z,100.00
2023-04-02T02:33:38.970Z,100.00
2023-04-02T02:36:14.545Z,100.00
2023-04-02T02:38:54.378Z,100.00
2023-04-02T02:41:29.728Z,100.00
2023-04-02T02:44:03.634Z,100.00
2023-04-02T02:46:34.898Z,100.00
2023-04-02T02:49:05.670Z,100.00
2023-04-02T02:51:43.577Z,100.00
2023-04-02T02:54:13.444Z,100.00
2023-04-02T02:56:47.580Z,100.00
2023-04-02T02:59:17.110Z,100.00
2023-04-02T03:01:48.547Z,100.00
2023-04-02T03:04:22.902Z,100.00
2023-04-02T03:06:57.199Z,100.00
2023-04-02T03:09:32.670Z,100.00
2023-04-02T03:12:08.744Z,100.00
2023-04-02T03:14:43.690Z,100.00
2023-04-02T03:17:21.633Z,100.00
2023-04-02T03:19:55.155Z,100.00
2023-04-02T03:22:28.536Z,100.00
2023-04-02T03:25:02.765Z,100.00
2023-04-02T03:27:34.110Z,100.00
2023-04-02T03:30:15.668Z,100.00
2023-04-02T03:32:48.316Z,100.00
2023-04-02T03:35:24.287Z,100.00
2023-04-02T03:38:00.147Z,100.00
2023-04-02T03:40:33.200Z,100.00
2023-04-02T03:43:06.680Z,100.00
2023-04-02T03:45:39.916Z,100.00
2023-04-02T03:48:15.271Z,100.00
2023-04-02T03:50:49.431Z,100.00
2023-04-02T03:53:17.618Z,100.00
2023-04-02T03:55:46.575Z,100.00
2023-04-02T03:58:22.168Z,100.00
2023-04-02T04:00:55.860Z,100.00
2023-04-02T04:03:31.381Z,100.00
2023-04-02T04:06:03.108Z,100.00
2023-04-02T04:08:38.197Z,100.00
2023-04-02T04:11:12.086Z,100.00
2023-04-02T04:13:46.062Z,100.00
2023-04-02T04:16:20.907Z,100.00
2023-04-02T04:18:57.557Z,100.00
2023-04-02T04:21:31.391Z,100.00
2023-04-02T04:24:05.177Z,100.00
2023-04-02T04:26:40.774Z,100.00
2023-04-02T04:29:19.391Z,100.00
2023-04-02T04:31:49.812Z,100.00
2023-04-02T04:34:25.624Z,100.00
2023-04-02T04:37:02.166Z,100.00
2023-04-02T04:39:41.358Z,100.00
2023-04-02T04:42:19.000Z,100.00
2023-04-02T04:44:53.120Z,100.00
2023-04-02T04:47:22.580Z,100.00
2023-04-02T04:49:57.811Z,100.00
2023-04-02T04:52:28.341Z,100.00
2023-04-02T04:54:57.089Z,100.00
2023-04-02T04:57:33.132Z,100.00
2023-04-02T05:00:09.508Z,100.00
2023-04-02T05:02:42.573Z,100.00
2023-04-02T05:05:22.171Z,100.00
2023-04-02T05:07:54.651Z,100.00
2023-04-02T05:10:31.942Z,100.00
2023-04-02T05:13:06.873Z,100.00
2023-04-02T05:15:40.196Z,100.00
2023-04-02T05:18:19.492Z,100.00
2023-04-02T05:20:53.783Z,100.00
2023-04-02T05:23:28.309Z,100.00
2023-04-02T05:26:04.624Z,100.00
2023-04-02T05:28:40.177Z,100.00
2023-04-02T05:31:12.721Z,100.00
2023-04-02T05:33:41.379Z,100.00
2023-04-02T05:36:13.094Z,100.00
2023-04-02T05:38:47.773Z,100.00
2023-04-02T05:41:24.683Z,100.00
2023-04-02T05:44:00.173Z,100.00
2023-04-02T05:46:33.741Z,100.00
2023-04-02T05:49:02.734Z,100.00
2023-04-02T05:51:41.253Z,100.00
2023-04-02T05:54:23.348Z,100.00
2023-04-02T05:56:56.357Z,100.00
2023-04-02T05:59:30.768Z,100.00
2023-04-02T06:02:03.990Z,100.00
2023-04-02T06:04:37.690Z,100.00
2023-04-02T06:07:12.565Z,100.00
2023-04-02T06:09:45.113Z,100.00
2023-04-02T06:12:25.037Z,100.00
2023-04-02T06:14:53.924Z,100.00
2023-04-02T06:17:22.602Z,100.00
2023-04-02T06:19:52.264Z,100.00
2023-04-02T06:22:28.648Z,100.00
2023-04-02T06:25:01.753Z,100.00
2023-04-02T06:27:30.855Z,100.00
2023-04-02T06:30:16.494Z,100.00
2023-04-02T06:32:44.952Z,100.00
2023-04-02T06:35:14.122Z,100.00
2023-04-02T06:37:47.313Z,100.00
2023-04-02T06:40:34.799Z,100.00
2023-04-02T06:43:08.348Z,100.00
2023-04-02T06:45:43.006Z,100.00
2023-04-02T06:48:17.320Z,100.00
2023-04-02T06:50:49.187Z,100.00
2023-04-02T06:53:23.161Z,100.00
2023-04-02T06:55:54.778Z,100.00
2023-04-02T06:58:22.877Z,100.00
2023-04-02T07:00:51.905Z,100.00
2023-04-02T07:03:24.802Z,100.00
2023-04-02T07:05:52.954Z,100.00
2023-04-02T07:08:23.131Z,100.00
2023-04-02T07:10:52.344Z,100.00
2023-04-02T07:13:22.240Z,100.00
2023-04-02T07:15:52.666Z,100.00
2023-04-02T07:18:25.889Z,100.00
2023-04-02T07:20:54.730Z,100.00
2023-04-02T07:23:24.790Z,100.00
2023-04-02T07:25:54.625Z,100.00
2023-04-02T07:28:23.161Z,100.00
2023-04-02T07:30:52.102Z,100.00
2023-04-02T07:33:23.252Z,99.93
2023-04-02T07:35:52.431Z,98.21
2023-04-02T07:38:20.790Z,99.20
2023-04-02T07:40:50.498Z,100.00
2023-04-02T07:43:18.489Z,99.37
2023-04-02T07:45:46.507Z,95.73
2023-04-02T07:48:15.694Z,96.48
2023-04-02T07:50:43.722Z,95.60
2023-04-02T07:53:28.084Z,92.99
2023-04-02T07:55:57.269Z,92.24
2023-04-02T07:58:25.701Z,94.87
2023-04-02T08:00:53.744Z,93.72
2023-04-02T08:03:22.033Z,91.36
2023-04-02T08:05:54.197Z,90.25
2023-04-02T08:08:22.583Z,91.98
2023-04-02T08:10:51.262Z,92.34
2023-04-02T08:13:20.653Z,91.14
2023-04-02T08:15:48.552Z,91.12
2023-04-02T08:18:19.539Z,87.78
2023-04-02T08:20:47.498Z,88.37
2023-04-02T08:23:18.104Z,89.84
2023-04-02T08:25:46.254Z,87.99
2023-04-02T08:28:14.789Z,88.83
2023-04-02T08:30:44.636Z,87.76
2023-04-02T08:33:12.806Z,85.21
2023-04-02T08:35:40.786Z,87.86
2023-04-02T08:38:09.862Z,89.99
2023-04-02T08:40:40.040Z,90.35
2023-04-02T08:43:47.101Z,88.50
2023-04-02T08:46:23.521Z,86.81
2023-04-02T08:48:56.976Z,90.38
2023-04-02T08:51:27.265Z,87.35
2023-04-02T08:53:59.237Z,86.85
2023-04-02T08:56:33.257Z,89.38
2023-04-02T08:59:03.989Z,90.27
2023-04-02T09:01:44.484Z,86.34
2023-04-02T09:04:16.643Z,86.26
2023-04-02T09:06:45.083Z,85.57
2023-04-02T09:09:14.977Z,83.37
2023-04-02T09:11:51.879Z,80.85
2023-04-02T09:14:22.376Z,82.60
2023-04-02T09:16:54.922Z,84.46
2023-04-02T09:19:24.618Z,80.66
2023-04-02T09:22:06.089Z,86.04
2023-04-02T09:24:34.333Z,80.05
2023-04-02T09:27:02.371Z,79.50
2023-04-02T09:29:41.520Z,79.55
2023-04-02T09:32:35.898Z,78.90
2023-04-02T09:35:24.442Z,80.38
2023-04-02T09:38:18.592Z,78.21
2023-04-02T09:40:51.932Z,79.91
2023-04-02T09:43:22.289Z,76.19
2023-04-02T09:46:01.702Z,76.28
2023-04-02T09:48:33.691Z,78.22
2023-04-02T09:51:13.502Z,77.42
2023-04-02T09:53:42.992Z,75.08
2023-04-02T09:56:21.872Z,75.96
2023-04-02T09:59:04.310Z,73.46
2023-04-02T10:01:34.676Z,73.07
2023-04-02T10:04:06.761Z,71.68
2023-04-02T10:06:35.921Z,71.93
2023-04-02T10:09:27.469Z,74.36
2023-04-02T10:11:57.011Z,74.12
2023-04-02T10:14:29.831Z,76.11
2023-04-02T10:17:00.845Z,75.81
2023-04-02T10:19:35.265Z,75.20
2023-04-02T10:22:10.428Z,74.44
2023-04-02T10:24:38.424Z,72.13
2023-04-02T10:27:18.327Z,72.02
2023-04-02T10:30:07.179Z,71.86
2023-04-02T10:32:42.095Z,74.33
2023-04-02T10:35:20.858Z,74.22
2023-04-02T10:38:20.055Z,72.83
2023-04-02T10:40:55.851Z,73.22
2023-04-02T10:43:57.845Z,73.90
2023-04-02T10:46:32.948Z,76.72
2023-04-02T10:49:13.015Z,75.27
2023-04-02T10:51:46.261Z,74.76
2023-04-02T10:54:40.088Z,73.17
2023-04-02T10:57:13.653Z,72.91
2023-04-02T10:59:44.712Z,72.78
2023-04-02T11:02:32.025Z,71.00
2023-04-02T11:05:06.568Z,70.26
2023-04-02T11:07:47.243Z,71.39
2023-04-02T11:10:19.848Z,70.11
2023-04-02T11:12:54.468Z,75.05
2023-04-02T11:15:23.114Z,76.48
2023-04-02T11:17:51.748Z,74.62
2023-04-02T11:20:59.335Z,73.69
2023-04-02T11:23:34.642Z,67.14
2023-04-02T11:26:37.530Z,66.79
2023-04-02T11:29:16.390Z,69.63
2023-04-02T11:31:46.002Z,64.57
2023-04-02T11:34:16.674Z,63.67
2023-04-02T11:37:09.065Z,60.80
2023-04-02T11:39:53.627Z,60.52
2023-04-02T11:42:30.178Z,60.18
2023-04-02T11:45:02.076Z,60.18
2023-04-02T11:47:31.101Z,59.72
2023-04-02T11:50:05.644Z,58.31
2023-04-02T11:52:53.233Z,60.96
2023-04-02T11:55:27.438Z,59.43
2023-04-02T11:58:33.874Z,55.23
2023-04-02T12:01:25.938Z,57.39
2023-04-02T12:04:26.000Z,53.74
2023-04-02T12:07:06.488Z,56.44
2023-04-02T12:09:46.102Z,59.57
2023-04-02T12:12:26.740Z,57.60
2023-04-02T12:14:57.277Z,59.44
2023-04-02T12:17:32.047Z,58.77
2023-04-02T12:20:05.888Z,62.77
2023-04-02T12:22:36.200Z,58.62
2023-04-02T12:25:08.878Z,59.72
2023-04-02T12:27:38.579Z,61.10
2023-04-02T12:30:16.142Z,58.49
2023-04-02T12:32:44.307Z,59.89
2023-04-02T12:35:29.823Z,59.50
2023-04-02T12:37:58.509Z,59.04
2023-04-02T12:40:27.324Z,60.40
2023-04-02T12:42:56.885Z,61.42
2023-04-02T12:45:29.385Z,60.26
2023-04-02T12:47:59.183Z,60.74
2023-04-02T12:50:27.811Z,61.15
2023-04-02T12:52:59.106Z,57.33
2023-04-02T12:55:28.343Z,59.83
2023-04-02T12:57:59.752Z,58.92
2023-04-02T13:00:34.155Z,54.83
2023-04-02T13:03:21.955Z,53.64
2023-04-02T13:05:54.571Z,53.69
2023-04-02T13:08:27.335Z,54.18
2023-04-02T13:10:58.021Z,53.99
2023-04-02T13:13:44.022Z,56.27
2023-04-02T13:16:34.134Z,57.26
2023-04-02T13:19:21.933Z,59.88
2023-04-02T13:21:50.539Z,64.38
2023-04-02T13:24:19.551Z,55.72
2023-04-02T13:26:50.115Z,57.46
2023-04-02T13:29:33.176Z,55.29
2023-04-02T13:32:02.991Z,55.10
2023-04-02T13:34:31.442Z,55.20
2023-04-02T13:36:59.869Z,57.10
2023-04-02T13:39:30.393Z,53.93
2023-04-02T13:42:00.239Z,54.81
2023-04-02T13:44:31.944Z,54.33
2023-04-02T13:47:00.851Z,54.12
2023-04-02T13:49:29.793Z,52.63
2023-04-02T13:52:00.852Z,50.18
2023-04-02T13:54:35.087Z,53.35
2023-04-02T13:57:03.313Z,51.04
2023-04-02T13:59:32.836Z,52.80
2023-04-02T14:02:06.609Z,52.61
2023-04-02T14:04:36.660Z,55.75
2023-04-02T14:07:20.266Z,55.34
2023-04-02T14:10:01.896Z,58.13
2023-04-02T14:12:42.776Z,63.54
2023-04-02T14:15:26.054Z,55.11
2023-04-02T14:18:24.339Z,53.87
2023-04-02T14:21:02.584Z,55.37
2023-04-02T14:23:43.770Z,58.44
2023-04-02T14:26:20.128Z,58.34
2023-04-02T14:28:57.830Z,59.93
2023-04-02T14:31:35.304Z,62.88
2023-04-02T14:34:10.097Z,62.06
2023-04-02T14:36:51.271Z,62.13
2023-04-02T14:39:27.399Z,61.33
2023-04-02T14:42:00.136Z,63.61
2023-04-02T14:44:34.390Z,64.20
2023-04-02T14:47:17.596Z,63.16
2023-04-02T14:49:49.843Z,62.50
2023-04-02T14:52:22.830Z,61.97
2023-04-02T14:54:53.733Z,58.36
2023-04-02T14:57:24.512Z,59.85
2023-04-02T15:00:01.514Z,53.67
2023-04-02T15:02:40.405Z,52.43
2023-04-02T15:05:18.632Z,55.90
2023-04-02T15:07:51.989Z,58.07
2023-04-02T15:10:25.508Z,64.88
2023-04-02T15:12:54.716Z,61.94
2023-04-02T15:15:39.349Z,62.49
2023-04-02T15:18:14.126Z,60.28
2023-04-02T15:20:52.468Z,60.98
2023-04-02T15:23:29.301Z,61.63
2023-04-02T15:26:07.329Z,62.78
2023-04-02T15:28:42.054Z,62.57
2023-04-02T15:31:14.515Z,63.14
2023-04-02T15:33:46.955Z,64.17
2023-04-02T15:36:38.424Z,63.32
2023-04-02T15:39:21.787Z,62.90
2023-04-02T15:42:05.687Z,63.33
2023-04-02T15:44:35.753Z,64.31
2023-04-02T15:47:11.517Z,63.15
2023-04-02T15:49:44.514Z,67.24
2023-04-02T15:52:19.565Z,66.09
2023-04-02T15:55:00.245Z,67.96
2023-04-02T15:57:44.039Z,67.71
2023-04-02T16:00:26.952Z,68.16
2023-04-02T16:03:23.116Z,69.66
2023-04-02T16:06:10.749Z,68.21
2023-04-02T16:08:48.113Z,66.77
2023-04-02T16:11:16.827Z,68.83
2023-04-02T16:13:45.156Z,69.04
2023-04-02T16:16:19.002Z,68.21
2023-04-02T16:18:56.839Z,69.80
2023-04-02T16:21:30.441Z,71.84
2023-04-02T16:23:58.428Z,70.64
2023-04-02T16:26:52.485Z,71.71
2023-04-02T16:29:55.034Z,71.08
2023-04-02T16:32:49.344Z,71.57
2023-04-02T16:38:13.950Z,74.46
2023-04-02T16:41:04.686Z,75.08
2023-04-02T16:43:47.122Z,74.08
2023-04-02T16:46:38.116Z,74.74
2023-04-02T16:49:27.676Z,74.45
2023-04-02T16:52:08.086Z,74.02
2023-04-02T16:54:46.337Z,73.24
2023-04-02T16:57:25.286Z,75.50
2023-04-02T17:00:02.170Z,75.69
2023-04-02T17:02:43.521Z,75.56
2023-04-02T17:05:30.657Z,75.76
2023-04-02T17:08:09.509Z,75.99
2023-04-02T17:10:49.816Z,76.45
2023-04-02T17:13:25.200Z,76.01
2023-04-02T17:16:02.824Z,76.54
2023-04-02T17:18:32.155Z,76.50
2023-04-02T17:21:05.206Z,75.67
2023-04-02T17:23:55.300Z,75.58
2023-04-02T17:26:28.469Z,76.77
2023-04-02T17:28:58.747Z,76.44
2023-04-02T17:31:34.285Z,76.31
2023-04-02T17:34:10.865Z,76.32
2023-04-02T17:36:47.385Z,76.68
2023-04-02T17:39:22.230Z,78.57
2023-04-02T17:41:58.179Z,77.71
2023-04-02T17:44:38.046Z,76.89
2023-04-02T17:47:13.365Z,77.47
2023-04-02T17:49:49.722Z,77.99
2023-04-02T17:52:22.512Z,77.48
2023-04-02T17:54:59.240Z,77.22
2023-04-02T17:57:41.722Z,77.66
2023-04-02T18:00:23.932Z,78.02
2023-04-02T18:03:10.728Z,77.85
2023-04-02T18:05:45.486Z,78.13
2023-04-02T18:08:25.629Z,78.75
2023-04-02T18:11:05.975Z,79.42
2023-04-02T18:13:37.024Z,80.68
2023-04-02T18:16:43.330Z,79.94
2023-04-02T18:19:18.305Z,80.45
2023-04-02T18:21:55.685Z,81.42
2023-04-02T18:24:42.728Z,81.13
2023-04-02T18:27:34.381Z,81.10
2023-04-02T18:30:16.555Z,80.47
2023-04-02T18:33:05.022Z,80.88
2023-04-02T18:35:34.902Z,81.48
2023-04-02T18:38:16.920Z,80.99
2023-04-02T18:41:02.659Z,81.87
2023-04-02T18:43:43.085Z,82.66
2023-04-02T18:46:23.302Z,82.84
2023-04-02T18:48:57.928Z,83.61
2023-04-02T18:51:27.681Z,84.24
2023-04-02T18:54:04.130Z,82.83
2023-04-02T18:56:33.236Z,83.18
2023-04-02T18:59:14.624Z,82.98
2023-04-02T19:01:48.065Z,83.26
2023-04-02T19:04:21.526Z,84.62
2023-04-02T19:06:54.034Z,86.39
2023-04-02T19:09:27.297Z,87.22
2023-04-02T19:11:55.377Z,87.22
2023-04-02T19:14:24.320Z,86.27
2023-04-02T19:17:03.473Z,90.63
2023-04-02T19:19:41.189Z,88.10
2023-04-02T19:22:18.011Z,89.07
2023-04-02T19:25:09.771Z,91.75
2023-04-02T19:27:51.350Z,96.17
2023-04-02T19:30:42.385Z,93.13
2023-04-02T19:33:26.130Z,92.51
2023-04-02T19:35:58.923Z,91.36
2023-04-02T19:38:47.722Z,91.78
2023-04-02T19:41:27.403Z,90.89
2023-04-02T19:43:56.828Z,91.76
2023-04-02T19:46:27.340Z,92.10
2023-04-02T19:49:06.008Z,91.91
2023-04-02T19:51:35.017Z,92.62
2023-04-02T19:54:03.064Z,94.33
2023-04-02T19:56:31.260Z,95.48
2023-04-02T19:59:02.353Z,96.80
2023-04-02T20:01:33.595Z,96.84
2023-04-02T20:04:03.814Z,98.47
2023-04-02T20:06:32.090Z,98.13
2023-04-02T20:09:00.302Z,99.69
2023-04-02T20:11:29.049Z,100.00
2023-04-02T20:13:56.956Z,100.00
2023-04-02T20:16:24.889Z,100.00
2023-04-02T20:18:52.919Z,99.64
2023-04-02T20:21:22.589Z,99.67
2023-04-02T20:23:54.083Z,99.54
2023-04-02T20:26:22.822Z,99.33
2023-04-02T20:28:51.020Z,99.19
2023-04-02T20:31:19.907Z,99.79
2023-04-02T20:33:48.038Z,99.81
2023-04-02T20:36:17.566Z,100.00
2023-04-02T20:38:46.934Z,100.00
2023-04-02T20:41:16.148Z,100.00
2023-04-02T20:43:44.135Z,100.00
2023-04-02T20:46:13.640Z,98.40
2023-04-02T20:48:41.963Z,96.84
2023-04-02T20:51:11.028Z,97.88
2023-04-02T20:53:39.206Z,95.96
2023-04-02T20:56:11.117Z,95.37
2023-04-02T20:58:40.878Z,95.00
2023-04-02T21:01:11.707Z,95.62
2023-04-02T21:03:40.718Z,96.69
2023-04-02T21:06:14.104Z,100.00
2023-04-02T21:08:42.085Z,100.00
2023-04-02T21:11:12.171Z,99.77
2023-04-02T21:13:42.562Z,99.52
2023-04-02T21:16:16.201Z,99.02
2023-04-02T21:18:44.874Z,99.16
2023-04-02T21:21:14.503Z,100.00
2023-04-02T21:23:43.634Z,100.00
2023-04-02T21:26:15.481Z,100.00
2023-04-02T21:28:44.920Z,99.28
2023-04-02T21:31:14.644Z,99.31
2023-04-02T21:33:45.277Z,99.74
2023-04-02T21:36:14.997Z,98.69
2023-04-02T21:38:44.411Z,98.07
2023-04-02T21:41:16.562Z,99.37
2023-04-02T21:43:46.049Z,98.86
2023-04-02T21:46:14.308Z,97.69
2023-04-02T21:48:43.335Z,100.00
2023-04-02T21:51:13.900Z,100.00
2023-04-02T21:53:43.270Z,100.00
2023-04-02T21:56:16.593Z,98.97
2023-04-02T21:58:45.464Z,100.00
2023-04-02T22:01:26.135Z,100.00
2023-04-02T22:03:55.769Z,99.40
2023-04-02T22:06:25.834Z,96.82
2023-04-02T22:08:56.309Z,98.96
2023-04-02T22:11:28.122Z,98.25
2023-04-02T22:13:56.697Z,96.37
2023-04-02T22:16:26.464Z,95.39
2023-04-02T22:18:58.753Z,94.23
2023-04-02T22:21:27.121Z,93.01
2023-04-02T22:23:55.443Z,92.66
2023-04-02T22:26:25.798Z,91.86
2023-04-02T22:28:53.733Z,91.72
2023-04-02T22:31:24.038Z,92.28
2023-04-02T22:33:53.087Z,95.36
2023-04-02T22:36:22.437Z,99.31
2023-04-02T22:38:51.021Z,98.65
2023-04-02T22:41:21.711Z,97.51
2023-04-02T22:43:51.259Z,97.30
2023-04-02T22:46:21.367Z,97.33
2023-04-02T22:48:50.922Z,98.65
2023-04-02T22:51:21.955Z,99.67
2023-04-02T22:53:51.239Z,100.00
2023-04-02T22:56:22.073Z,100.00
2023-04-02T22:58:51.749Z,100.00
2023-04-02T23:01:22.717Z,100.00
2023-04-02T23:03:51.254Z,100.00
2023-04-02T23:06:20.014Z,100.00
2023-04-02T23:08:48.296Z,100.00
2023-04-02T23:11:18.314Z,100.00
2023-04-02T23:13:49.092Z,100.00
2023-04-02T23:16:19.780Z,100.00
2023-04-02T23:18:49.611Z,100.00
2023-04-02T23:21:19.371Z,100.00
2023-04-02T23:23:48.433Z,100.00
2023-04-02T23:26:18.158Z,100.00
2023-04-02T23:28:46.586Z,100.00
2023-04-02T23:31:16.838Z,100.00
2023-04-02T23:33:46.302Z,100.00
2023-04-02T23:36:17.690Z,100.00
2023-04-02T23:38:45.777Z,100.00
2023-04-02T23:41:15.966Z,100.00
2023-04-02T23:43:44.534Z,100.00
2023-04-02T23:46:12.561Z,100.00
2023-04-02T23:48:41.322Z,100.00
2023-04-02T23:51:10.616Z,100.00
2023-04-02T23:53:38.710Z,100.00
2023-04-02T23:56:07.354Z,100.00
2023-04-02T23:58:35.556Z,100.00
